Decoded Metar for PARC (ARCTIC VILLAGE in AK, USA) (IATA:ARC) | Meteo·Mobile Aviation Weather
aviador You're here:

PARC Decoded Metar

ARCTIC VILLAGE in AK, USA
Report Time2019-05-25 23:56:00
UTC Time2019-05-26 00:07:19
Flight Rules vfr VFR
Wind090° at 05 kt
W.Decomp.*RWY 02: 3.6 kt HW 3.5 kt RCW
Visibility9999 m
Phenomena:N/A
Clouds:N/A
Expected CloudBase > 9,200 ft AGL from Temp-Dew spread
CeilingNone
Temp16°C (ISA +5)
Dew Point-7°C (20% RH)
AAT11.4°C
QNH1013 hPa
Density Alt2,746 ft
Elevation2,087 ft
Report Wrong Elevation
Raw Report
PARC 252356Z AUTO 09005KT 10SM CLR 16/M07 A2990 RMK AO2 SLP153
T01611067 10161 20111 58019=

Extra information for PARC:More info

Airport Information Weather charts Add Link Nearby Venues Social comments

AIRNAV info for PARC